メインページ
METAR-TAF:

METAR-TAF

空港 :

ベルリン, ドイツ

ベルリン・テーゲル空港

緯度: 52-34N, 経度: 013-19E, 海抜: 37m

現時点の気象観測

当レポートは35分前の05:50(UTC)に作成
南西の風 15kt
気温 5°C
湿度 81%
気圧 987 hPa
視程10km以上
高度2800ftの千切れ雲あり
小雨, 霧雨

METAR: EDDT 140550Z 23015KT 9999 -RADZ BKN028 05/02 Q0987 TEMPO 22015G25KT

時間: 07:25 (06:25 UTC)

予報

当レポートは1時間25分前の05:00(UTC)に作成
予報は14日の 06時(UTC)から 15日の 06時(UTC)まで有効
南西の風 15kt、最大25ktの突風を伴う
視程10km以上
高度3000ftの千切れ雲あり
確率 30% :
14日の 10時(UTC)から 14日の 16時(UTC)まで一時的に
西/南西の風 20kt、最大35ktの突風を伴う
視程: 4500m
高度1000ftの千切れ雲あり, 塔状積雲.
にわか雨, 雪
14日の 18時(UTC)から 14日の 21時(UTC)まで徐々に
南西の風 10kt

TAF: EDDT 140500Z 1406/1506 22015G25KT 9999 BKN030 PROB30 TEMPO 1410/1416 25020G35KT 4500 SHRASN BKN010TCU BECMG 1418/1421 22010KT

4,000以上の空港の気象観測と天気予報(METAR報とTAF報)

利用可能な観測所は地図上に黄色い丸と赤い丸で示す。

丸の上にカーソルを重ねると観測所名を参照できる。

次にクリックすると気象観測と天気予報を参照できる。

マップの切り替え:黒色「×」印の緑ボタンをクリックして拡大、「-」印の緑ボタンをクリックして縮小、緑色の三角印をクリックして隣りの地図に切り替え


METAR-TAF: